CYMO

Moosonee Airport

Moosonee, Ontario, Canada
METAR CYMO 151338Z AUTO 24005KT 9SM OVC012 M22/M24 A2985 RMK SLP111
Observed Flight Rules
Dec-15 @ 13:38 UTC (31 minutes ago) Marginal Visual Flight Rules
Wind Visibility Clouds
240° at 5 knots 9 miles
  • Overcast at 1,200' AGL
Temperatures Readings
Current -22°C / -8°F
Dewpoint -24°C / -11°F
Humidity 84%
Altimeter 29.85" Hg
Pressure 1011.1 hPa
Elevation 10
METAR CYMO 151338Z AUTO 24005KT 9SM OVC012 M22/M24 A2985 RMK SLP111
Observed Flight Rules
Dec-15 @ 13:38 UTC
(31 minutes ago)
MVFR
Wind Visibility
240° at 5 knots 9 miles
Clouds
  • Overcast at 1,200' AGL
Temperature Dewpoint
-22°C / -8°F -24°C / -11°F
Humidity Altimeter Pressure
84% 29.85" Hg 1011.1 hPa